createdAt,value
2023-06-30T00:01:49.497Z,15.70
2023-06-30T00:04:23.717Z,17.13
2023-06-30T00:06:52.031Z,17.77
2023-06-30T00:09:22.718Z,17.03
2023-06-30T00:11:52.658Z,18.33
2023-06-30T00:14:21.574Z,17.60
2023-06-30T00:16:50.880Z,18.13
2023-06-30T00:19:20.062Z,18.50
2023-06-30T00:21:49.239Z,19.80
2023-06-30T00:24:16.577Z,19.83
2023-06-30T00:26:43.909Z,19.33
2023-06-30T00:29:11.714Z,20.50
2023-06-30T00:31:38.909Z,21.30
2023-06-30T00:34:06.210Z,21.10
2023-06-30T00:36:34.537Z,21.40
2023-06-30T00:39:01.994Z,19.90
2023-06-30T00:41:29.921Z,21.60
2023-06-30T00:43:59.329Z,22.00
2023-06-30T00:46:27.093Z,21.73
2023-06-30T00:48:56.358Z,22.70
2023-06-30T00:51:23.745Z,20.87
2023-06-30T00:53:51.191Z,21.47
2023-06-30T00:56:19.397Z,22.77
2023-06-30T00:58:46.659Z,22.40
2023-06-30T01:01:23.349Z,23.03
2023-06-30T01:04:13.764Z,22.43
2023-06-30T01:06:53.797Z,21.87
2023-06-30T01:09:25.050Z,21.73
2023-06-30T01:11:52.651Z,22.40
2023-06-30T01:14:21.240Z,23.43
2023-06-30T01:16:50.149Z,23.23
2023-06-30T01:19:33.911Z,23.77
2023-06-30T01:22:14.583Z,22.63
2023-06-30T01:24:45.027Z,22.83
2023-06-30T01:27:13.685Z,23.07
2023-06-30T01:29:44.964Z,22.87
2023-06-30T01:32:18.027Z,24.20
2023-06-30T01:34:48.686Z,23.03
2023-06-30T01:37:16.169Z,22.80
2023-06-30T01:39:43.359Z,22.67
2023-06-30T01:42:11.277Z,24.33
2023-06-30T01:44:39.200Z,23.17
2023-06-30T01:47:08.114Z,23.37
2023-06-30T01:49:35.911Z,25.67
2023-06-30T01:52:04.019Z,25.43
2023-06-30T01:54:31.169Z,25.33
2023-06-30T01:56:59.603Z,25.10
2023-06-30T01:59:27.715Z,23.87
2023-06-30T02:01:55.035Z,22.37
2023-06-30T02:04:22.407Z,21.60
2023-06-30T02:06:49.710Z,22.03
2023-06-30T02:09:17.317Z,21.30
2023-06-30T02:11:45.275Z,22.80
2023-06-30T02:14:16.642Z,21.47
2023-06-30T02:16:44.267Z,21.13
2023-06-30T02:19:11.598Z,22.20
2023-06-30T02:21:38.884Z,20.83
2023-06-30T02:24:06.537Z,20.27
2023-06-30T02:26:33.696Z,20.43
2023-06-30T02:29:01.069Z,20.90
2023-06-30T02:31:28.272Z,21.37
2023-06-30T02:33:55.575Z,21.17
2023-06-30T02:36:22.862Z,21.10
2023-06-30T02:38:50.072Z,19.93
2023-06-30T02:41:17.312Z,21.30
2023-06-30T02:43:44.801Z,20.27
2023-06-30T02:46:12.295Z,19.87
2023-06-30T02:48:40.068Z,20.63
2023-06-30T02:51:07.337Z,21.73
2023-06-30T02:53:35.053Z,21.63
2023-06-30T02:56:02.299Z,21.40
2023-06-30T02:58:37.473Z,23.23
2023-06-30T03:01:07.007Z,21.80
2023-06-30T03:03:36.956Z,20.83
2023-06-30T03:06:05.281Z,21.17
2023-06-30T03:08:35.411Z,15.80
2023-06-30T03:11:02.651Z,14.60
2023-06-30T03:13:29.824Z,12.60
2023-06-30T03:15:57.354Z,8.80
2023-06-30T03:18:25.129Z,10.43
2023-06-30T03:20:52.441Z,9.53
2023-06-30T03:23:20.755Z,7.93
2023-06-30T03:25:48.885Z,7.67
2023-06-30T03:28:16.272Z,7.00
2023-06-30T03:30:43.553Z,6.33
2023-06-30T03:33:14.582Z,5.50
2023-06-30T03:35:43.410Z,4.80
2023-06-30T03:38:14.520Z,4.13
2023-06-30T03:40:42.334Z,3.97
2023-06-30T03:43:11.628Z,3.37
2023-06-30T03:45:39.661Z,3.77
2023-06-30T03:48:07.433Z,3.83
2023-06-30T03:50:34.974Z,3.70
2023-06-30T03:53:02.996Z,3.53
2023-06-30T03:55:30.622Z,3.03
2023-06-30T03:57:58.193Z,3.37
2023-06-30T04:00:26.043Z,2.63
2023-06-30T04:02:53.878Z,3.00
2023-06-30T04:05:21.592Z,2.73
2023-06-30T04:07:49.374Z,2.10
2023-06-30T04:10:17.201Z,2.30
2023-06-30T04:12:45.064Z,3.50
2023-06-30T04:15:12.656Z,3.00
2023-06-30T04:17:40.555Z,2.40
2023-06-30T04:20:11.031Z,2.70
2023-06-30T04:22:38.806Z,2.60
2023-06-30T04:25:07.697Z,2.50
2023-06-30T04:27:36.354Z,2.50
2023-06-30T04:30:04.812Z,2.13
2023-06-30T04:32:32.521Z,2.10
2023-06-30T04:35:00.381Z,2.20
2023-06-30T04:37:30.288Z,2.30
2023-06-30T04:39:59.299Z,1.80
2023-06-30T04:42:30.378Z,2.23
2023-06-30T04:44:58.550Z,1.80
2023-06-30T04:47:28.748Z,1.87
2023-06-30T04:50:03.102Z,1.83
2023-06-30T04:52:39.346Z,2.10
2023-06-30T04:55:12.496Z,2.10
2023-06-30T04:57:46.719Z,1.93
2023-06-30T05:00:17.965Z,1.83
2023-06-30T05:02:46.220Z,1.60
2023-06-30T05:05:14.083Z,1.90
2023-06-30T05:08:08.935Z,2.40
2023-06-30T05:10:36.990Z,2.13
2023-06-30T05:13:04.644Z,2.00
2023-06-30T05:15:34.450Z,1.83
2023-06-30T05:18:02.296Z,1.80
2023-06-30T05:20:30.805Z,1.60
2023-06-30T05:22:58.456Z,1.73
2023-06-30T05:25:27.276Z,2.33
2023-06-30T05:27:57.644Z,1.90
2023-06-30T05:30:25.587Z,1.40
2023-06-30T05:32:53.571Z,1.80
2023-06-30T05:35:21.562Z,2.20
2023-06-30T05:37:49.064Z,1.73
2023-06-30T05:40:16.890Z,1.70
2023-06-30T05:42:44.469Z,1.53
2023-06-30T05:45:15.933Z,1.60
2023-06-30T05:47:45.811Z,1.97
2023-06-30T05:50:13.402Z,1.87
2023-06-30T05:52:41.005Z,2.10
2023-06-30T05:55:09.184Z,1.70
2023-06-30T05:57:36.576Z,1.67
2023-06-30T06:00:05.715Z,1.60
2023-06-30T06:02:39.665Z,1.73
2023-06-30T06:05:09.934Z,1.80
2023-06-30T06:07:41.727Z,1.80
2023-06-30T06:10:09.812Z,1.60
2023-06-30T06:12:40.318Z,2.00
2023-06-30T06:15:09.319Z,1.40
2023-06-30T06:17:37.102Z,1.90
2023-06-30T06:20:05.272Z,1.47
2023-06-30T06:22:33.063Z,1.40
2023-06-30T06:25:00.693Z,2.17
2023-06-30T06:27:30.082Z,1.40
2023-06-30T06:29:57.632Z,1.80
2023-06-30T06:32:25.316Z,1.50
2023-06-30T06:34:52.840Z,1.67
2023-06-30T06:37:21.016Z,1.40
2023-06-30T06:39:48.503Z,1.30
2023-06-30T06:42:15.883Z,1.40
2023-06-30T06:44:43.341Z,1.40
2023-06-30T06:48:07.248Z,1.30
2023-06-30T06:50:34.676Z,1.00
2023-06-30T06:53:02.121Z,1.30
2023-06-30T06:55:29.729Z,1.40
2023-06-30T06:57:57.180Z,1.30
2023-06-30T07:00:24.569Z,1.40
2023-06-30T07:02:53.692Z,1.40
2023-06-30T07:05:21.359Z,1.83
2023-06-30T07:07:49.005Z,2.13
2023-06-30T07:10:16.872Z,1.10
2023-06-30T07:12:44.441Z,1.00
2023-06-30T07:15:12.077Z,1.50
2023-06-30T07:17:39.588Z,1.20
2023-06-30T07:20:07.888Z,1.30
2023-06-30T07:22:35.517Z,1.23
2023-06-30T07:25:04.854Z,1.20
2023-06-30T07:27:32.637Z,1.10
2023-06-30T07:30:00.119Z,1.37
2023-06-30T07:32:28.739Z,1.30
2023-06-30T07:34:56.201Z,1.20
2023-06-30T07:37:23.632Z,1.27
2023-06-30T07:39:50.972Z,1.20
2023-06-30T07:42:18.453Z,1.20
2023-06-30T07:44:46.079Z,1.27
2023-06-30T07:47:13.736Z,1.30
2023-06-30T07:49:41.293Z,1.00
2023-06-30T07:52:08.824Z,1.00
2023-06-30T07:54:36.214Z,1.47
2023-06-30T07:57:03.781Z,1.20
2023-06-30T07:59:31.349Z,1.37
2023-06-30T08:01:58.948Z,1.40
2023-06-30T08:04:27.062Z,1.20
2023-06-30T08:06:55.843Z,1.20
2023-06-30T08:09:23.779Z,1.20
2023-06-30T08:11:51.236Z,1.30
2023-06-30T08:14:18.656Z,1.17
2023-06-30T08:16:46.504Z,1.43
2023-06-30T08:19:43.586Z,1.37
2023-06-30T08:22:02.997Z,1.17
2023-06-30T08:24:30.545Z,1.30
2023-06-30T08:26:57.971Z,1.27
2023-06-30T08:29:25.458Z,1.30
2023-06-30T08:31:57.545Z,1.57
2023-06-30T08:34:30.856Z,1.50
2023-06-30T08:36:58.377Z,1.70
2023-06-30T08:39:31.455Z,1.57
2023-06-30T08:42:01.405Z,1.40
2023-06-30T08:44:32.797Z,1.57
2023-06-30T08:47:03.293Z,1.60
2023-06-30T08:49:33.090Z,1.70
2023-06-30T08:52:02.031Z,1.50
2023-06-30T08:54:33.170Z,1.80
2023-06-30T08:57:04.794Z,2.23
2023-06-30T08:59:32.517Z,1.60
2023-06-30T09:02:00.740Z,1.57
2023-06-30T09:04:29.637Z,1.70
2023-06-30T09:07:00.456Z,1.70
2023-06-30T09:09:43.954Z,2.00
2023-06-30T09:12:12.210Z,1.73
2023-06-30T09:14:42.295Z,1.67
2023-06-30T09:17:09.821Z,1.97
2023-06-30T09:19:37.684Z,1.70
2023-06-30T09:22:53.073Z,2.00
2023-06-30T09:24:55.285Z,2.00
2023-06-30T09:27:23.015Z,1.90
2023-06-30T09:29:56.091Z,1.60
2023-06-30T09:32:32.294Z,1.83
2023-06-30T09:35:10.351Z,2.00
2023-06-30T09:37:45.513Z,1.73
2023-06-30T09:40:16.493Z,1.87
2023-06-30T09:42:48.302Z,1.80
2023-06-30T09:45:15.946Z,1.53
2023-06-30T09:47:43.667Z,1.70
2023-06-30T09:50:12.118Z,1.83
2023-06-30T09:52:39.972Z,4.93
2023-06-30T09:55:11.298Z,2.27
2023-06-30T09:57:42.329Z,2.00
2023-06-30T10:00:25.451Z,2.50
2023-06-30T10:03:06.119Z,2.30
2023-06-30T10:05:35.352Z,2.73
2023-06-30T10:08:03.967Z,2.10
2023-06-30T10:10:32.950Z,1.87
2023-06-30T10:13:00.758Z,2.00
2023-06-30T10:15:28.512Z,1.90
2023-06-30T10:17:58.847Z,1.90
2023-06-30T10:20:42.307Z,1.70
2023-06-30T10:23:15.158Z,2.07
2023-06-30T10:25:43.610Z,2.50
2023-06-30T10:28:11.582Z,1.87
2023-06-30T10:30:40.288Z,1.70
2023-06-30T10:33:07.802Z,1.90
2023-06-30T10:35:36.728Z,2.10
2023-06-30T10:38:04.792Z,1.73
2023-06-30T10:40:32.342Z,2.03
2023-06-30T10:43:00.306Z,2.10
2023-06-30T10:46:12.879Z,2.20
2023-06-30T10:48:41.453Z,2.43
2023-06-30T10:51:13.210Z,2.40
2023-06-30T10:53:44.983Z,3.80
2023-06-30T10:56:30.029Z,2.37
2023-06-30T10:59:00.049Z,2.20
2023-06-30T11:01:28.717Z,1.50
2023-06-30T11:03:59.642Z,1.87
2023-06-30T11:06:27.947Z,2.10
2023-06-30T11:09:10.870Z,1.70
2023-06-30T11:11:52.254Z,2.00
2023-06-30T11:14:36.148Z,1.63
2023-06-30T11:17:06.115Z,2.00
2023-06-30T11:19:36.379Z,1.70
2023-06-30T11:22:27.267Z,1.70
2023-06-30T11:24:54.950Z,1.70
2023-06-30T11:27:22.830Z,2.00
2023-06-30T11:29:54.094Z,2.10
2023-06-30T11:32:33.644Z,1.83
2023-06-30T11:35:09.144Z,1.70
2023-06-30T11:37:38.199Z,1.67
2023-06-30T11:40:07.752Z,1.83
2023-06-30T11:42:41.111Z,1.70
2023-06-30T11:45:09.046Z,1.50
2023-06-30T11:47:40.036Z,2.20
2023-06-30T11:50:09.610Z,2.07
2023-06-30T11:52:39.691Z,1.53
2023-06-30T11:55:14.090Z,1.93
2023-06-30T11:57:44.515Z,1.70
2023-06-30T12:00:23.684Z,1.80
2023-06-30T12:02:59.287Z,1.60
2023-06-30T12:05:28.603Z,2.03
2023-06-30T12:07:58.096Z,1.67
2023-06-30T12:10:40.084Z,2.00
2023-06-30T12:13:09.412Z,1.70
2023-06-30T12:15:38.513Z,1.97
2023-06-30T12:18:06.960Z,1.60
2023-06-30T12:20:40.264Z,1.60
2023-06-30T12:23:08.590Z,1.77
2023-06-30T12:25:37.532Z,1.73
2023-06-30T12:28:10.988Z,1.53
2023-06-30T12:30:39.539Z,1.40
2023-06-30T12:33:10.089Z,1.70
2023-06-30T12:35:40.897Z,1.63
2023-06-30T12:38:11.320Z,1.60
2023-06-30T12:40:39.554Z,1.60
2023-06-30T12:43:07.089Z,1.70
2023-06-30T12:45:35.665Z,1.47
2023-06-30T12:48:06.444Z,1.80
2023-06-30T12:50:37.080Z,1.73
2023-06-30T12:53:06.865Z,1.47
2023-06-30T12:55:34.280Z,1.53
2023-06-30T12:58:01.719Z,1.80
2023-06-30T13:00:29.201Z,1.80
2023-06-30T13:02:56.655Z,1.80
2023-06-30T13:05:24.146Z,1.57
2023-06-30T13:07:51.873Z,1.70
2023-06-30T13:10:19.353Z,1.60
2023-06-30T13:12:46.782Z,1.60
2023-06-30T13:15:14.199Z,1.80
2023-06-30T13:17:43.144Z,1.40
2023-06-30T13:20:11.073Z,1.60
2023-06-30T13:22:50.875Z,1.50
2023-06-30T13:25:26.180Z,1.53
2023-06-30T13:27:53.546Z,1.90
2023-06-30T13:30:20.985Z,1.37
2023-06-30T13:32:48.599Z,1.30
2023-06-30T13:35:16.059Z,2.10
2023-06-30T13:37:44.421Z,1.87
2023-06-30T13:40:14.559Z,1.30
2023-06-30T13:42:42.079Z,2.37
2023-06-30T13:45:11.283Z,1.60
2023-06-30T13:47:39.106Z,1.50
2023-06-30T13:50:07.399Z,1.60
2023-06-30T13:52:34.952Z,1.33
2023-06-30T13:55:02.437Z,1.63
2023-06-30T13:57:29.910Z,1.40
2023-06-30T13:59:57.425Z,1.50
2023-06-30T14:02:46.909Z,1.63
2023-06-30T14:05:20.351Z,1.30
2023-06-30T14:07:47.961Z,1.30
2023-06-30T14:10:15.419Z,1.20
2023-06-30T14:12:42.868Z,1.60
2023-06-30T14:15:10.875Z,1.17
2023-06-30T14:17:38.262Z,1.27
2023-06-30T14:20:06.511Z,1.10
2023-06-30T14:22:33.830Z,1.10
2023-06-30T14:25:01.148Z,1.37
2023-06-30T14:27:28.544Z,1.20
2023-06-30T14:29:55.947Z,1.20
2023-06-30T14:32:26.709Z,1.63
2023-06-30T14:34:54.127Z,1.30
2023-06-30T14:37:21.800Z,1.50
2023-06-30T14:39:49.186Z,1.43
2023-06-30T14:42:30.739Z,1.30
2023-06-30T14:44:58.784Z,1.23
2023-06-30T14:47:26.344Z,1.50
2023-06-30T14:49:54.826Z,1.40
2023-06-30T14:52:24.022Z,1.30
2023-06-30T14:54:51.501Z,1.27
2023-06-30T14:57:18.967Z,1.30
2023-06-30T14:59:46.392Z,1.37
2023-06-30T15:02:14.992Z,1.40
2023-06-30T15:04:42.606Z,1.23
2023-06-30T15:07:10.192Z,1.60
2023-06-30T15:09:38.262Z,1.47
2023-06-30T15:12:06.704Z,1.17
2023-06-30T15:14:34.745Z,1.43
2023-06-30T15:17:02.105Z,1.30
2023-06-30T15:19:29.664Z,1.30
2023-06-30T15:21:57.121Z,1.33
2023-06-30T15:24:24.673Z,1.20
2023-06-30T15:26:52.090Z,1.40
2023-06-30T15:29:19.724Z,1.37
2023-06-30T15:31:47.173Z,1.40
2023-06-30T15:34:14.793Z,1.47
2023-06-30T15:36:42.399Z,1.60
2023-06-30T15:39:09.848Z,1.40
2023-06-30T15:41:37.167Z,1.50
2023-06-30T15:44:04.992Z,1.23
2023-06-30T15:46:32.788Z,1.83
2023-06-30T15:49:00.978Z,1.27
2023-06-30T15:51:29.747Z,1.60
2023-06-30T15:53:57.279Z,22.27
2023-06-30T15:56:24.776Z,1.80
2023-06-30T15:58:52.283Z,1.50
2023-06-30T16:01:19.847Z,1.40
2023-06-30T16:03:47.398Z,1.53
2023-06-30T16:06:15.196Z,2.00
2023-06-30T16:08:42.749Z,1.47
2023-06-30T16:11:10.254Z,1.70
2023-06-30T16:13:37.545Z,1.60
2023-06-30T16:16:05.301Z,1.30
2023-06-30T16:18:32.788Z,1.40
2023-06-30T16:21:00.532Z,1.20
2023-06-30T16:23:28.049Z,1.53
2023-06-30T16:25:56.002Z,1.23
2023-06-30T16:28:24.700Z,1.40
2023-06-30T16:30:52.505Z,1.40
2023-06-30T16:33:20.483Z,1.60
2023-06-30T16:35:49.066Z,1.50
2023-06-30T16:38:17.002Z,1.47
2023-06-30T16:40:44.974Z,1.10
2023-06-30T16:43:12.384Z,1.27
2023-06-30T16:45:40.251Z,1.70
2023-06-30T16:48:07.792Z,1.30
2023-06-30T16:50:35.339Z,1.50
2023-06-30T16:53:03.069Z,1.40
2023-06-30T16:55:30.920Z,1.30
2023-06-30T16:57:59.344Z,1.87
2023-06-30T17:00:28.475Z,1.50
2023-06-30T17:02:56.681Z,1.43
2023-06-30T17:05:25.459Z,1.40
2023-06-30T17:07:53.699Z,1.40
2023-06-30T17:10:21.690Z,1.20
2023-06-30T17:12:50.045Z,1.30
2023-06-30T17:15:18.133Z,1.30
2023-06-30T17:17:45.857Z,1.33
2023-06-30T17:20:13.619Z,1.23
2023-06-30T17:22:41.682Z,1.50
2023-06-30T17:25:09.280Z,1.40
2023-06-30T17:27:36.865Z,1.53
2023-06-30T17:30:05.111Z,1.50
2023-06-30T17:32:32.666Z,1.40
2023-06-30T17:35:00.176Z,1.40
2023-06-30T17:37:28.235Z,1.40
2023-06-30T17:39:55.774Z,1.33
2023-06-30T17:42:23.333Z,1.50
2023-06-30T17:44:50.790Z,1.20
2023-06-30T17:47:18.200Z,1.70
2023-06-30T17:49:46.696Z,1.50
2023-06-30T17:52:15.986Z,1.30
2023-06-30T17:54:43.498Z,1.20
2023-06-30T17:57:10.829Z,1.10
2023-06-30T17:59:38.276Z,1.90
2023-06-30T18:02:06.737Z,1.50
2023-06-30T18:04:34.346Z,1.40
2023-06-30T18:07:09.556Z,1.43
2023-06-30T18:09:43.333Z,1.50
2023-06-30T18:12:12.134Z,1.40
2023-06-30T18:14:42.248Z,1.60
2023-06-30T18:17:09.930Z,1.50
2023-06-30T18:19:40.077Z,1.43
2023-06-30T18:22:08.938Z,1.30
2023-06-30T18:24:36.438Z,1.67
2023-06-30T18:27:04.339Z,1.47
2023-06-30T18:29:32.028Z,1.43
2023-06-30T18:32:00.937Z,1.50
2023-06-30T18:34:28.806Z,1.50
2023-06-30T18:36:56.200Z,1.53
2023-06-30T18:39:23.566Z,1.60
2023-06-30T18:41:58.162Z,118.23
2023-06-30T18:44:28.488Z,11.83
2023-06-30T18:46:55.782Z,1.50
2023-06-30T18:49:25.825Z,1.77
2023-06-30T18:51:55.140Z,1.43
2023-06-30T18:54:23.340Z,1.40
2023-06-30T18:56:50.936Z,1.60
2023-06-30T18:59:18.485Z,1.67
2023-06-30T19:01:46.078Z,1.50
2023-06-30T19:04:13.860Z,2.27
2023-06-30T19:06:42.094Z,1.63
2023-06-30T19:09:09.807Z,1.43
2023-06-30T19:11:37.533Z,1.33
2023-06-30T19:14:05.126Z,1.70
2023-06-30T19:16:32.834Z,1.73
2023-06-30T19:19:00.463Z,1.37
2023-06-30T19:21:27.922Z,1.70
2023-06-30T19:23:55.365Z,1.50
2023-06-30T19:26:24.412Z,1.47
2023-06-30T19:28:52.039Z,2.20
2023-06-30T19:31:22.092Z,1.53
2023-06-30T19:33:49.536Z,1.60
2023-06-30T19:36:16.979Z,1.60
2023-06-30T19:38:44.644Z,1.60
2023-06-30T19:41:13.565Z,1.80
2023-06-30T19:43:41.238Z,1.77
2023-06-30T19:46:08.976Z,2.10
2023-06-30T19:48:36.316Z,1.80
2023-06-30T19:51:03.711Z,1.63
2023-06-30T19:53:32.978Z,2.10
2023-06-30T19:56:00.535Z,2.00
2023-06-30T19:58:28.050Z,2.20
2023-06-30T20:00:55.653Z,1.80
2023-06-30T20:03:23.244Z,2.00
2023-06-30T20:05:50.725Z,2.10
2023-06-30T20:08:19.553Z,2.30
2023-06-30T20:10:47.008Z,1.80
2023-06-30T20:13:14.336Z,1.93
2023-06-30T20:15:41.713Z,2.00
2023-06-30T20:18:09.292Z,1.70
2023-06-30T20:20:37.043Z,1.80
2023-06-30T20:23:04.495Z,1.83
2023-06-30T20:25:33.950Z,1.90
2023-06-30T20:28:01.460Z,1.90
2023-06-30T20:30:29.220Z,1.90
2023-06-30T20:32:56.625Z,1.60
2023-06-30T20:35:24.014Z,1.80
2023-06-30T20:37:51.428Z,2.17
2023-06-30T20:40:19.016Z,2.10
2023-06-30T20:42:46.520Z,1.90
2023-06-30T20:45:13.798Z,2.30
2023-06-30T20:47:41.256Z,1.87
2023-06-30T20:50:10.167Z,2.00
2023-06-30T20:52:38.145Z,2.27
2023-06-30T20:55:06.220Z,2.17
2023-06-30T20:57:34.164Z,2.60
2023-06-30T21:00:01.599Z,1.63
2023-06-30T21:02:29.161Z,2.20
2023-06-30T21:04:58.650Z,2.00
2023-06-30T21:07:26.653Z,2.50
2023-06-30T21:09:54.107Z,1.90
2023-06-30T21:12:21.617Z,1.80
2023-06-30T21:14:49.204Z,1.87
2023-06-30T21:17:16.926Z,1.80
2023-06-30T21:19:44.724Z,1.70
2023-06-30T21:22:12.380Z,2.13
2023-06-30T21:24:39.886Z,1.90
2023-06-30T21:27:07.618Z,2.00
2023-06-30T21:29:35.051Z,1.77
2023-06-30T21:32:02.815Z,2.00
2023-06-30T21:34:31.867Z,1.63
2023-06-30T21:36:59.592Z,2.00
2023-06-30T21:39:27.143Z,1.57
2023-06-30T21:41:54.583Z,2.20
2023-06-30T21:44:21.961Z,1.90
2023-06-30T21:46:49.791Z,2.57
2023-06-30T21:49:17.165Z,2.03
2023-06-30T21:51:44.620Z,2.10
2023-06-30T21:56:41.180Z,1.97
2023-06-30T21:59:08.648Z,2.00
2023-06-30T22:01:40.832Z,1.73
2023-06-30T22:04:09.669Z,2.23
2023-06-30T22:06:37.657Z,1.97
2023-06-30T22:09:15.183Z,1.87
2023-06-30T22:11:44.419Z,2.10
2023-06-30T22:14:13.544Z,1.90
2023-06-30T22:16:41.214Z,2.13
2023-06-30T22:19:08.681Z,2.10
2023-06-30T22:21:36.291Z,2.00
2023-06-30T22:24:03.891Z,2.33
2023-06-30T22:26:31.317Z,2.20
2023-06-30T22:28:59.015Z,1.83
2023-06-30T22:31:26.811Z,2.23
2023-06-30T22:33:54.336Z,1.90
2023-06-30T22:36:21.972Z,2.20
2023-06-30T22:38:50.606Z,2.30
2023-06-30T22:41:18.131Z,2.00
2023-06-30T22:43:45.898Z,1.67
2023-06-30T22:46:13.326Z,2.20
2023-06-30T22:48:41.754Z,1.90
2023-06-30T22:51:09.474Z,1.83
2023-06-30T22:53:37.072Z,2.00
2023-06-30T22:56:07.497Z,2.43
2023-06-30T22:58:35.182Z,1.93
2023-06-30T23:01:02.887Z,2.00
2023-06-30T23:03:30.607Z,1.63
2023-06-30T23:05:58.759Z,2.37
2023-06-30T23:08:26.219Z,2.13
2023-06-30T23:10:54.195Z,1.70
2023-06-30T23:13:21.853Z,1.60
2023-06-30T23:16:14.544Z,2.00
2023-06-30T23:18:41.803Z,1.80
2023-06-30T23:21:11.842Z,1.70
2023-06-30T23:23:43.782Z,2.30
2023-06-30T23:26:12.727Z,1.80
2023-06-30T23:28:50.407Z,1.93
2023-06-30T23:31:20.467Z,1.60
2023-06-30T23:33:53.338Z,1.60
2023-06-30T23:36:21.268Z,1.60
2023-06-30T23:38:48.461Z,1.43
2023-06-30T23:41:15.806Z,1.63
2023-06-30T23:43:42.945Z,1.70
2023-06-30T23:46:19.091Z,1.50
2023-06-30T23:48:50.777Z,1.40
2023-06-30T23:51:18.314Z,2.00
2023-06-30T23:53:45.490Z,1.70
2023-06-30T23:56:12.894Z,1.80
2023-06-30T23:58:40.101Z,1.70
